createdAt,value
2018-08-22T00:00:16.522Z,23.00
2018-08-22T00:02:46.968Z,23.02
2018-08-22T00:05:17.276Z,23.01
2018-08-22T00:07:47.682Z,23.01
2018-08-22T00:10:18.177Z,23.00
2018-08-22T00:12:48.804Z,22.91
2018-08-22T00:15:19.136Z,22.83
2018-08-22T00:17:49.568Z,22.79
2018-08-22T00:20:19.994Z,22.77
2018-08-22T00:22:50.478Z,22.71
2018-08-22T00:25:20.699Z,22.69
2018-08-22T00:27:51.103Z,22.70
2018-08-22T00:30:21.405Z,22.72
2018-08-22T00:32:52.597Z,22.67
2018-08-22T00:35:23.006Z,22.68
2018-08-22T00:37:53.486Z,22.65
2018-08-22T00:40:24.025Z,22.61
2018-08-22T00:42:54.342Z,22.52
2018-08-22T00:45:24.709Z,22.53
2018-08-22T00:47:55.144Z,22.41
2018-08-22T00:50:25.569Z,22.38
2018-08-22T00:52:55.929Z,22.36
2018-08-22T00:55:26.237Z,22.35
2018-08-22T00:57:56.801Z,22.36
2018-08-22T01:00:27.171Z,22.37
2018-08-22T01:02:57.318Z,22.39
2018-08-22T01:05:27.872Z,22.29
2018-08-22T01:07:58.314Z,22.26
2018-08-22T01:10:28.425Z,22.30
2018-08-22T01:12:58.727Z,22.27
2018-08-22T01:15:29.026Z,22.28
2018-08-22T01:17:59.499Z,22.27
2018-08-22T01:20:33.540Z,22.23
2018-08-22T01:23:04.041Z,22.23
2018-08-22T01:25:34.578Z,22.22
2018-08-22T01:28:05.201Z,22.18
2018-08-22T01:30:35.825Z,22.05
2018-08-22T01:33:06.597Z,21.99
2018-08-22T01:35:37.184Z,21.95
2018-08-22T01:38:08.459Z,21.94
2018-08-22T01:40:38.835Z,21.95
2018-08-22T01:43:09.624Z,21.99
2018-08-22T01:45:40.483Z,22.04
2018-08-22T01:48:10.867Z,21.99
2018-08-22T01:50:41.376Z,21.99
2018-08-22T01:53:11.662Z,21.90
2018-08-22T01:55:42.040Z,21.94
2018-08-22T01:58:12.650Z,21.92
2018-08-22T02:00:42.967Z,21.85
2018-08-22T02:03:13.641Z,21.90
2018-08-22T02:05:44.439Z,21.89
2018-08-22T02:08:14.790Z,21.86
2018-08-22T02:10:45.004Z,21.83
2018-08-22T02:13:15.450Z,21.81
2018-08-22T02:15:45.878Z,21.76
2018-08-22T02:18:16.517Z,21.72
2018-08-22T02:20:46.843Z,21.77
2018-08-22T02:23:17.267Z,21.76
2018-08-22T02:25:47.876Z,21.75
2018-08-22T02:28:18.420Z,21.72
2018-08-22T02:30:48.803Z,21.69
2018-08-22T02:33:19.534Z,21.68
2018-08-22T02:35:50.096Z,21.65
2018-08-22T02:38:24.338Z,21.65
2018-08-22T02:40:57.189Z,21.61
2018-08-22T02:43:27.647Z,21.58
2018-08-22T02:45:58.072Z,21.55
2018-08-22T02:48:28.277Z,21.55
2018-08-22T02:50:58.992Z,21.61
2018-08-22T02:53:29.458Z,21.53
2018-08-22T02:55:59.739Z,21.50
2018-08-22T02:58:30.154Z,21.50
2018-08-22T03:01:01.348Z,21.52
2018-08-22T03:03:31.680Z,21.56
2018-08-22T03:06:08.143Z,21.49
2018-08-22T03:08:38.675Z,21.50
2018-08-22T03:11:08.899Z,21.50
2018-08-22T03:13:39.259Z,21.44
2018-08-22T03:16:09.615Z,21.36
2018-08-22T03:18:40.059Z,21.27
2018-08-22T03:21:10.356Z,21.27
2018-08-22T03:23:40.856Z,21.23
2018-08-22T03:26:11.413Z,21.24
2018-08-22T03:28:41.779Z,21.28
2018-08-22T03:31:12.174Z,21.28
2018-08-22T03:33:42.647Z,21.25
2018-08-22T03:36:12.971Z,21.26
2018-08-22T03:38:43.391Z,21.24
2018-08-22T03:41:13.696Z,21.25
2018-08-22T03:43:44.027Z,21.23
2018-08-22T03:46:15.342Z,21.21
2018-08-22T03:48:45.925Z,21.23
2018-08-22T03:51:16.205Z,21.25
2018-08-22T03:53:46.777Z,21.23
2018-08-22T03:56:16.873Z,21.23
2018-08-22T03:58:47.317Z,21.14
2018-08-22T04:01:17.725Z,21.14
2018-08-22T04:03:48.591Z,21.12
2018-08-22T04:06:19.213Z,21.06
2018-08-22T04:08:49.784Z,21.04
2018-08-22T04:11:20.883Z,21.00
2018-08-22T04:13:51.522Z,21.00
2018-08-22T04:16:21.826Z,21.03
2018-08-22T04:18:52.301Z,21.04
2018-08-22T04:21:22.783Z,21.07
2018-08-22T04:23:53.166Z,21.08
2018-08-22T04:26:26.369Z,21.07
2018-08-22T04:28:56.989Z,21.12
2018-08-22T04:31:27.670Z,21.12
2018-08-22T04:33:57.997Z,21.14
2018-08-22T04:36:28.434Z,21.20
2018-08-22T04:38:58.837Z,21.23
2018-08-22T04:41:29.470Z,21.27
2018-08-22T04:44:00.001Z,21.25
2018-08-22T04:46:30.459Z,21.27
2018-08-22T04:49:00.907Z,21.30
2018-08-22T04:51:31.486Z,21.26
2018-08-22T04:54:02.135Z,21.28
2018-08-22T04:56:32.619Z,21.38
2018-08-22T04:59:03.103Z,21.38
2018-08-22T05:01:33.437Z,21.40
2018-08-22T05:04:03.942Z,21.35
2018-08-22T05:06:34.337Z,21.36
2018-08-22T05:09:06.549Z,21.40
2018-08-22T05:11:36.898Z,21.39
2018-08-22T05:14:07.444Z,21.43
2018-08-22T05:16:37.776Z,21.49
2018-08-22T05:19:08.243Z,21.53
2018-08-22T05:21:38.679Z,21.60
2018-08-22T05:24:09.206Z,21.57
2018-08-22T05:26:39.670Z,21.62
2018-08-22T05:29:10.121Z,21.63
2018-08-22T05:31:40.714Z,21.62
2018-08-22T05:34:11.332Z,21.67
2018-08-22T05:36:41.848Z,21.64
2018-08-22T05:39:13.475Z,21.73
2018-08-22T05:41:44.199Z,21.74
2018-08-22T05:44:14.442Z,21.78
2018-08-22T05:46:44.663Z,21.85
2018-08-22T05:49:15.047Z,21.94
2018-08-22T05:51:45.390Z,22.05
2018-08-22T05:54:15.657Z,22.08
2018-08-22T05:56:46.046Z,22.08
2018-08-22T05:59:16.557Z,22.08
2018-08-22T06:01:47.047Z,22.18
2018-08-22T06:04:18.224Z,22.22
2018-08-22T06:06:48.712Z,22.23
2018-08-22T06:09:18.803Z,22.30
2018-08-22T06:11:49.075Z,22.30
2018-08-22T06:14:19.621Z,22.35
2018-08-22T06:16:50.651Z,22.42
2018-08-22T06:19:21.276Z,22.43
2018-08-22T06:21:51.813Z,22.50
2018-08-22T06:24:21.816Z,22.52
2018-08-22T06:26:51.783Z,22.59
2018-08-22T06:29:21.771Z,22.65
2018-08-22T06:31:51.840Z,22.67
2018-08-22T06:34:22.651Z,22.76
2018-08-22T06:36:52.716Z,22.73
2018-08-22T06:39:22.819Z,22.73
2018-08-22T06:41:53.152Z,22.78
2018-08-22T06:44:23.758Z,22.86
2018-08-22T06:46:54.293Z,22.91
2018-08-22T06:49:24.326Z,23.02
2018-08-22T06:51:54.550Z,23.11
2018-08-22T06:54:24.625Z,23.17
2018-08-22T06:56:54.728Z,23.26
2018-08-22T06:59:24.784Z,23.33
2018-08-22T07:01:54.788Z,23.45
2018-08-22T07:04:24.736Z,23.50
2018-08-22T07:06:54.725Z,23.50
2018-08-22T07:09:24.742Z,23.70
2018-08-22T07:11:54.743Z,23.67
2018-08-22T07:14:24.772Z,23.78
2018-08-22T07:16:54.778Z,23.84
2018-08-22T07:19:24.836Z,23.94
2018-08-22T07:21:54.870Z,24.00
2018-08-22T07:24:24.840Z,24.06
2018-08-22T07:26:54.858Z,24.13
2018-08-22T07:29:25.406Z,24.20
2018-08-22T07:31:55.426Z,24.29
2018-08-22T07:34:25.586Z,24.44
2018-08-22T07:36:55.647Z,24.56
2018-08-22T07:39:25.690Z,24.69
2018-08-22T07:41:55.753Z,24.89
2018-08-22T07:44:25.780Z,24.94
2018-08-22T07:46:55.766Z,25.01
2018-08-22T07:49:25.732Z,25.07
2018-08-22T07:51:55.741Z,25.10
2018-08-22T07:54:33.612Z,25.22
2018-08-22T07:57:03.650Z,25.10
2018-08-22T07:59:33.621Z,25.22
2018-08-22T08:02:03.622Z,25.38
2018-08-22T08:04:33.593Z,25.49
2018-08-22T08:07:03.642Z,25.60
2018-08-22T08:09:36.510Z,25.79
2018-08-22T08:12:06.599Z,25.93
2018-08-22T08:14:36.594Z,26.08
2018-08-22T08:17:06.852Z,26.18
2018-08-22T08:19:36.858Z,26.31
2018-08-22T08:22:06.906Z,26.46
2018-08-22T08:24:36.916Z,26.53
2018-08-22T08:27:06.922Z,26.64
2018-08-22T08:29:36.912Z,26.79
2018-08-22T08:32:07.362Z,26.90
2018-08-22T08:34:37.389Z,26.97
2018-08-22T08:37:08.178Z,27.15
2018-08-22T08:39:38.451Z,27.33
2018-08-22T08:42:08.712Z,27.50
2018-08-22T08:44:39.268Z,27.74
2018-08-22T08:47:10.257Z,28.04
2018-08-22T08:49:40.616Z,28.17
2018-08-22T08:52:11.167Z,28.31
2018-08-22T08:54:41.452Z,28.51
2018-08-22T08:57:11.893Z,28.63
2018-08-22T08:59:44.078Z,28.58
2018-08-22T09:02:18.820Z,28.76
2018-08-22T09:04:48.978Z,28.89
2018-08-22T09:07:22.621Z,29.02
2018-08-22T09:09:53.611Z,29.19
2018-08-22T09:12:27.842Z,29.32
2018-08-22T09:15:00.108Z,29.34
2018-08-22T09:17:32.960Z,29.37
2018-08-22T09:20:03.373Z,29.58
2018-08-22T09:22:33.434Z,29.70
2018-08-22T09:25:04.145Z,29.84
2018-08-22T09:27:37.443Z,30.01
2018-08-22T09:30:08.362Z,30.25
2018-08-22T09:32:38.869Z,30.49
2018-08-22T09:35:10.327Z,30.65
2018-08-22T09:37:40.566Z,30.83
2018-08-22T09:40:11.497Z,30.79
2018-08-22T09:42:41.959Z,30.96
2018-08-22T09:45:13.455Z,31.12
2018-08-22T09:47:44.286Z,31.27
2018-08-22T09:50:15.670Z,31.31
2018-08-22T09:52:46.826Z,31.47
2018-08-22T09:55:17.816Z,31.55
2018-08-22T09:57:48.257Z,31.45
2018-08-22T10:00:23.687Z,31.76
2018-08-22T10:02:55.070Z,32.11
2018-08-22T10:05:25.369Z,32.74
2018-08-22T10:08:00.259Z,33.12
2018-08-22T10:10:30.717Z,33.46
2018-08-22T10:13:01.766Z,33.72
2018-08-22T10:15:32.281Z,34.01
2018-08-22T10:18:02.821Z,34.14
2018-08-22T10:20:33.320Z,34.35
2018-08-22T10:23:03.852Z,34.47
2018-08-22T10:25:34.438Z,34.66
2018-08-22T10:28:04.806Z,35.07
2018-08-22T10:30:35.267Z,35.12
2018-08-22T10:33:05.633Z,34.85
2018-08-22T10:35:35.937Z,34.84
2018-08-22T10:38:06.255Z,35.13
2018-08-22T10:40:36.763Z,35.39
2018-08-22T10:43:07.294Z,35.48
2018-08-22T10:45:37.709Z,35.64
2018-08-22T10:48:08.380Z,35.62
2018-08-22T10:50:38.940Z,35.73
2018-08-22T10:53:09.728Z,35.72
2018-08-22T10:55:40.148Z,35.32
2018-08-22T10:58:10.404Z,35.08
2018-08-22T11:00:40.893Z,35.15
2018-08-22T11:03:11.410Z,35.19
2018-08-22T11:05:41.925Z,35.45
2018-08-22T11:08:12.510Z,35.79
2018-08-22T11:10:42.826Z,36.16
2018-08-22T11:13:13.130Z,36.21
2018-08-22T11:15:43.498Z,36.51
2018-08-22T11:18:13.967Z,36.72
2018-08-22T11:20:45.561Z,36.97
2018-08-22T11:23:32.788Z,37.19
2018-08-22T11:26:19.617Z,36.87
2018-08-22T11:29:06.305Z,36.85
2018-08-22T11:31:53.004Z,36.70
2018-08-22T11:34:40.352Z,37.00
2018-08-22T11:37:11.701Z,37.22
2018-08-22T11:39:43.895Z,37.55
2018-08-22T11:42:14.300Z,37.44
2018-08-22T11:44:44.797Z,37.22
2018-08-22T11:47:15.101Z,36.96
2018-08-22T11:49:45.458Z,36.93
2018-08-22T11:52:18.610Z,37.20
2018-08-22T11:54:49.095Z,37.75
2018-08-22T11:57:19.532Z,37.79
2018-08-22T11:59:49.946Z,36.26
2018-08-22T12:02:27.155Z,36.42
2018-08-22T12:04:57.748Z,36.70
2018-08-22T12:07:27.957Z,37.40
2018-08-22T12:09:58.422Z,37.38
2018-08-22T12:12:29.535Z,37.62
2018-08-22T12:14:59.858Z,38.22
2018-08-22T12:17:30.405Z,37.98
2018-08-22T12:20:00.843Z,38.47
2018-08-22T12:22:31.229Z,38.77
2018-08-22T12:25:01.770Z,38.49
2018-08-22T12:27:32.302Z,38.85
2018-08-22T12:30:02.681Z,39.40
2018-08-22T12:32:33.115Z,40.40
2018-08-22T12:35:03.610Z,41.54
2018-08-22T12:37:34.326Z,43.30
2018-08-22T12:40:05.115Z,44.47
2018-08-22T12:42:35.626Z,45.98
2018-08-22T12:45:06.940Z,45.69
2018-08-22T12:47:37.361Z,46.93
2018-08-22T12:50:07.879Z,48.35
2018-08-22T12:52:38.393Z,50.17
2018-08-22T12:55:08.841Z,51.04
2018-08-22T12:57:39.439Z,51.12
2018-08-22T13:00:10.026Z,50.95
2018-08-22T13:02:40.305Z,50.89
2018-08-22T13:05:10.724Z,51.42
2018-08-22T13:07:41.071Z,51.51
2018-08-22T13:10:11.508Z,51.65
2018-08-22T13:12:41.939Z,53.23
2018-08-22T13:15:12.510Z,53.85
2018-08-22T13:17:42.780Z,53.24
2018-08-22T13:20:13.228Z,53.98
2018-08-22T13:22:43.584Z,54.13
2018-08-22T13:25:14.117Z,52.98
2018-08-22T13:27:44.786Z,52.12
2018-08-22T13:30:14.976Z,52.69
2018-08-22T13:32:45.538Z,53.56
2018-08-22T13:35:15.971Z,53.79
2018-08-22T13:37:46.530Z,53.41
2018-08-22T13:40:17.126Z,53.15
2018-08-22T13:42:47.562Z,53.62
2018-08-22T13:45:18.116Z,54.19
2018-08-22T13:47:48.473Z,53.16
2018-08-22T13:50:19.052Z,52.83
2018-08-22T13:52:49.411Z,51.18
2018-08-22T13:55:19.955Z,52.52
2018-08-22T13:57:57.609Z,52.62
2018-08-22T14:00:27.929Z,52.94
2018-08-22T14:02:58.439Z,52.55
2018-08-22T14:05:29.046Z,53.06
2018-08-22T14:07:59.667Z,53.62
2018-08-22T14:10:30.256Z,52.13
2018-08-22T14:13:00.631Z,48.66
2018-08-22T14:15:31.014Z,47.38
2018-08-22T14:18:02.773Z,49.06
2018-08-22T14:20:33.041Z,48.90
2018-08-22T14:23:10.300Z,48.52
2018-08-22T14:25:40.759Z,48.93
2018-08-22T14:28:11.220Z,49.15
2018-08-22T14:30:41.669Z,49.70
2018-08-22T14:33:12.437Z,50.68
2018-08-22T14:35:43.059Z,50.28
2018-08-22T14:38:13.350Z,51.05
2018-08-22T14:40:43.721Z,50.74
2018-08-22T14:43:14.226Z,50.15
2018-08-22T14:45:44.631Z,49.73
2018-08-22T14:48:15.286Z,48.86
2018-08-22T14:50:45.814Z,48.70
2018-08-22T14:53:16.091Z,48.53
2018-08-22T14:55:46.635Z,48.47
2018-08-22T14:58:16.992Z,47.51
2018-08-22T15:00:47.483Z,46.13
2018-08-22T15:03:18.162Z,46.09
2018-08-22T15:05:48.542Z,45.67
2018-08-22T15:08:18.991Z,45.76
2018-08-22T15:10:49.723Z,45.41
2018-08-22T15:13:19.965Z,44.33
2018-08-22T15:15:50.392Z,44.15
2018-08-22T15:18:20.986Z,43.59
2018-08-22T15:20:51.570Z,43.47
2018-08-22T15:23:22.060Z,43.18
2018-08-22T15:25:52.513Z,42.84
2018-08-22T15:28:23.297Z,41.91
2018-08-22T15:30:53.634Z,41.83
2018-08-22T15:33:24.150Z,41.03
2018-08-22T15:35:54.732Z,41.08
2018-08-22T15:38:25.252Z,40.84
2018-08-22T15:40:55.534Z,40.77
2018-08-22T15:43:25.948Z,40.77
2018-08-22T15:45:56.528Z,40.89
2018-08-22T15:48:26.788Z,41.20
2018-08-22T15:50:57.234Z,41.12
2018-08-22T15:53:27.674Z,40.25
2018-08-22T15:55:58.191Z,39.46
2018-08-22T15:58:28.689Z,39.60
2018-08-22T16:00:59.386Z,39.29
2018-08-22T16:03:29.987Z,39.07
2018-08-22T16:06:00.177Z,38.31
2018-08-22T16:08:30.651Z,38.48
2018-08-22T16:11:05.169Z,38.28
2018-08-22T16:13:35.853Z,38.23
2018-08-22T16:16:06.255Z,37.84
2018-08-22T16:18:36.782Z,37.43
2018-08-22T16:21:08.705Z,37.43
2018-08-22T16:23:39.145Z,37.63
2018-08-22T16:26:09.675Z,37.42
2018-08-22T16:29:00.386Z,37.44
2018-08-22T16:31:46.301Z,37.19
2018-08-22T16:34:17.366Z,37.22
2018-08-22T16:36:47.935Z,37.00
2018-08-22T16:39:37.273Z,36.37
2018-08-22T16:42:08.516Z,36.23
2018-08-22T16:44:39.029Z,35.78
2018-08-22T16:47:09.323Z,35.09
2018-08-22T16:49:39.607Z,35.09
2018-08-22T16:52:10.065Z,35.01
2018-08-22T16:54:40.430Z,34.60
2018-08-22T16:57:11.443Z,34.48
2018-08-22T16:59:41.936Z,34.33
2018-08-22T17:02:12.441Z,34.25
2018-08-22T17:04:42.915Z,34.09
2018-08-22T17:07:17.219Z,34.02
2018-08-22T17:09:49.754Z,33.78
2018-08-22T17:12:20.461Z,33.55
2018-08-22T17:14:50.925Z,33.24
2018-08-22T17:17:21.531Z,33.24
2018-08-22T17:19:52.223Z,33.17
2018-08-22T17:22:22.487Z,32.95
2018-08-22T17:24:52.946Z,32.84
2018-08-22T17:27:23.391Z,32.70
2018-08-22T17:29:54.031Z,32.39
2018-08-22T17:32:24.595Z,32.29
2018-08-22T17:34:54.963Z,32.15
2018-08-22T17:37:25.489Z,32.04
2018-08-22T17:39:55.934Z,31.88
2018-08-22T17:42:26.296Z,31.66
2018-08-22T17:44:56.569Z,31.56
2018-08-22T17:47:26.914Z,31.50
2018-08-22T17:50:08.247Z,31.48
2018-08-22T17:52:38.546Z,31.30
2018-08-22T17:55:08.839Z,31.21
2018-08-22T17:57:39.155Z,31.19
2018-08-22T18:00:09.532Z,31.12
2018-08-22T18:02:39.964Z,30.99
2018-08-22T18:05:10.449Z,30.91
2018-08-22T18:07:41.019Z,30.85
2018-08-22T18:10:11.410Z,30.78
2018-08-22T18:12:41.835Z,30.73
2018-08-22T18:15:12.385Z,30.65
2018-08-22T18:17:42.783Z,30.42
2018-08-22T18:20:12.992Z,30.37
2018-08-22T18:22:43.445Z,30.17
2018-08-22T18:25:13.732Z,30.10
2018-08-22T18:27:44.434Z,29.92
2018-08-22T18:30:14.576Z,29.77
2018-08-22T18:32:47.140Z,29.63
2018-08-22T18:35:17.618Z,29.51
2018-08-22T18:37:48.254Z,29.40
2018-08-22T18:40:30.612Z,29.41
2018-08-22T18:43:03.851Z,29.22
2018-08-22T18:45:34.243Z,29.10
2018-08-22T18:48:06.386Z,28.99
2018-08-22T18:50:36.720Z,28.80
2018-08-22T18:53:07.079Z,28.64
2018-08-22T18:55:37.841Z,28.49
2018-08-22T18:58:08.301Z,28.41
2018-08-22T19:00:39.409Z,28.24
2018-08-22T19:03:09.767Z,28.27
2018-08-22T19:05:40.057Z,28.11
2018-08-22T19:08:18.298Z,28.26
2018-08-22T19:10:50.786Z,28.14
2018-08-22T19:13:25.024Z,28.08
2018-08-22T19:16:04.402Z,27.98
2018-08-22T19:18:34.751Z,28.08
2018-08-22T19:21:07.164Z,28.02
2018-08-22T19:23:37.868Z,27.93
2018-08-22T19:26:08.815Z,27.93
2018-08-22T19:28:57.311Z,27.81
2018-08-22T19:31:27.681Z,27.69
2018-08-22T19:33:58.004Z,27.51
2018-08-22T19:36:28.520Z,27.58
2018-08-22T19:38:58.787Z,27.52
2018-08-22T19:41:33.444Z,27.51
2018-08-22T19:44:04.937Z,27.53
2018-08-22T19:46:36.193Z,27.52
2018-08-22T19:49:06.759Z,27.52
2018-08-22T19:51:36.971Z,27.54
2018-08-22T19:54:13.934Z,27.52
2018-08-22T19:56:44.531Z,27.46
2018-08-22T19:59:15.230Z,27.38
2018-08-22T20:01:45.611Z,27.18
2018-08-22T20:04:16.100Z,26.99
2018-08-22T20:06:46.327Z,26.80
2018-08-22T20:09:16.819Z,26.80
2018-08-22T20:11:47.276Z,26.81
2018-08-22T20:14:17.527Z,26.79
2018-08-22T20:16:48.064Z,26.62
2018-08-22T20:19:18.328Z,26.56
2018-08-22T20:21:48.819Z,26.58
2018-08-22T20:24:19.550Z,26.58
2018-08-22T20:26:55.026Z,26.57
2018-08-22T20:29:25.510Z,26.50
2018-08-22T20:31:55.936Z,26.53
2018-08-22T20:34:26.446Z,26.54
2018-08-22T20:36:57.061Z,26.57
2018-08-22T20:39:27.361Z,26.38
2018-08-22T20:42:02.583Z,26.40
2018-08-22T20:44:33.079Z,26.36
2018-08-22T20:47:03.618Z,26.26
2018-08-22T20:49:34.215Z,26.26
2018-08-22T20:52:04.588Z,26.22
2018-08-22T20:54:34.882Z,26.07
2018-08-22T20:57:11.993Z,25.97
2018-08-22T20:59:42.540Z,26.04
2018-08-22T21:02:13.158Z,26.02
2018-08-22T21:04:43.649Z,26.03
2018-08-22T21:07:15.043Z,25.98
2018-08-22T21:09:45.454Z,25.87
2018-08-22T21:12:15.868Z,25.88
2018-08-22T21:14:46.313Z,25.75
2018-08-22T21:17:16.586Z,25.78
2018-08-22T21:19:46.993Z,25.74
2018-08-22T21:22:29.204Z,25.66
2018-08-22T21:25:00.995Z,25.73
2018-08-22T21:27:31.498Z,25.70
2018-08-22T21:30:01.939Z,25.71
2018-08-22T21:32:32.685Z,25.72
2018-08-22T21:35:08.188Z,25.68
2018-08-22T21:37:38.908Z,25.65
2018-08-22T21:40:09.507Z,25.62
2018-08-22T21:42:41.149Z,25.58
2018-08-22T21:45:11.656Z,25.54
2018-08-22T21:47:42.158Z,25.48
2018-08-22T21:50:12.663Z,25.49
2018-08-22T21:53:01.049Z,25.41
2018-08-22T21:55:39.744Z,25.37
2018-08-22T21:58:10.754Z,25.33
2018-08-22T22:00:41.093Z,25.33
2018-08-22T22:03:12.449Z,25.26
2018-08-22T22:05:48.585Z,25.13
2018-08-22T22:08:19.065Z,25.16
2018-08-22T22:10:49.812Z,25.11
2018-08-22T22:13:20.533Z,25.03
2018-08-22T22:15:51.039Z,25.03
2018-08-22T22:18:21.686Z,24.99
2018-08-22T22:20:53.844Z,24.97
2018-08-22T22:23:24.090Z,24.96
2018-08-22T22:25:55.351Z,24.98
2018-08-22T22:28:29.846Z,25.03
2018-08-22T22:31:00.462Z,25.00
2018-08-22T22:33:30.865Z,24.90
2018-08-22T22:36:01.283Z,24.79
2018-08-22T22:38:31.931Z,24.75
2018-08-22T22:41:02.438Z,24.71
2018-08-22T22:43:32.746Z,24.68
2018-08-22T22:46:03.077Z,24.76
2018-08-22T22:48:41.552Z,24.83
2018-08-22T22:51:12.202Z,24.75
2018-08-22T22:53:42.458Z,24.51
2018-08-22T22:56:12.854Z,24.47
2018-08-22T22:58:43.551Z,24.44
2018-08-22T23:01:14.036Z,24.42
2018-08-22T23:03:44.491Z,24.31
2018-08-22T23:06:14.689Z,24.24
2018-08-22T23:08:45.946Z,24.23
2018-08-22T23:11:16.339Z,24.18
2018-08-22T23:13:46.764Z,24.17
2018-08-22T23:16:20.054Z,24.23
2018-08-22T23:18:50.524Z,24.28
2018-08-22T23:21:20.779Z,24.27
2018-08-22T23:23:51.071Z,24.25
2018-08-22T23:26:21.483Z,24.22
2018-08-22T23:28:51.969Z,24.14
2018-08-22T23:31:22.575Z,24.06
2018-08-22T23:33:52.826Z,24.06
2018-08-22T23:36:23.289Z,24.05
2018-08-22T23:38:53.851Z,23.99
2018-08-22T23:41:24.306Z,23.92
2018-08-22T23:43:54.645Z,23.93
2018-08-22T23:46:25.091Z,23.91
2018-08-22T23:48:58.391Z,23.86
2018-08-22T23:51:28.819Z,23.93
2018-08-22T23:54:01.087Z,23.87
2018-08-22T23:56:32.896Z,23.93
2018-08-22T23:59:03.414Z,23.97
